sensor_id;sensor_type;location;lat;lon;timestamp;pressure;altitude;pressure_sealevel;temperature;humidity
55675;BME280;41562;44.330;23.802;2022-12-29T00:00:49;101405.13;;;1.75;95.90
55675;BME280;41562;44.330;23.802;2022-12-29T00:03:35;101400.06;;;1.44;89.96
55675;BME280;41562;44.330;23.802;2022-12-29T00:06:24;101405.94;;;1.46;89.27
55675;BME280;41562;44.330;23.802;2022-12-29T00:09:16;101400.84;;;1.59;89.49
55675;BME280;41562;44.330;23.802;2022-12-29T00:12:01;101395.97;;;1.56;89.01
55675;BME280;41562;44.330;23.802;2022-12-29T00:14:51;101398.25;;;1.45;89.87
55675;BME280;41562;44.330;23.802;2022-12-29T00:17:38;101399.13;;;1.52;89.55
55675;BME280;41562;44.330;23.802;2022-12-29T00:20:32;101397.59;;;1.43;92.49
55675;BME280;41562;44.330;23.802;2022-12-29T00:23:17;101400.03;;;1.59;90.32
55675;BME280;41562;44.330;23.802;2022-12-29T00:26:02;101409.66;;;1.52;89.89
55675;BME280;41562;44.330;23.802;2022-12-29T00:28:54;101400.78;;;1.53;89.03
55675;BME280;41562;44.330;23.802;2022-12-29T00:31:40;101407.69;;;1.54;90.01
55675;BME280;41562;44.330;23.802;2022-12-29T00:34:26;101401.16;;;1.50;89.77
55675;BME280;41562;44.330;23.802;2022-12-29T00:37:12;101406.03;;;1.53;88.88
55675;BME280;41562;44.330;23.802;2022-12-29T00:40:04;101403.75;;;1.65;94.69
55675;BME280;41562;44.330;23.802;2022-12-29T00:42:54;101401.94;;;1.65;90.68
55675;BME280;41562;44.330;23.802;2022-12-29T00:45:40;101403.41;;;1.53;89.41
55675;BME280;41562;44.330;23.802;2022-12-29T00:48:26;101407.84;;;1.67;89.06
55675;BME280;41562;44.330;23.802;2022-12-29T00:51:14;101403.91;;;1.78;94.58
55675;BME280;41562;44.330;23.802;2022-12-29T00:54:06;101406.13;;;1.74;89.65
55675;BME280;41562;44.330;23.802;2022-12-29T00:56:55;101400.13;;;1.66;89.02
55675;BME280;41562;44.330;23.802;2022-12-29T00:59:40;101399.31;;;1.65;97.40
55675;BME280;41562;44.330;23.802;2022-12-29T01:02:28;101400.19;;;1.72;91.74
55675;BME280;41562;44.330;23.802;2022-12-29T01:05:21;101409.66;;;1.52;89.75
55675;BME280;41562;44.330;23.802;2022-12-29T01:08:16;101397.78;;;1.41;89.85
55675;BME280;41562;44.330;23.802;2022-12-29T01:11:05;101398.44;;;1.58;89.52
55675;BME280;41562;44.330;23.802;2022-12-29T01:13:51;101394.97;;;1.43;90.07
55675;BME280;41562;44.330;23.802;2022-12-29T01:16:40;101393.72;;;1.39;90.08
55675;BME280;41562;44.330;23.802;2022-12-29T01:19:31;101388.56;;;3.56;98.83
55675;BME280;41562;44.330;23.802;2022-12-29T01:22:16;101388.41;;;2.04;87.84
55675;BME280;41562;44.330;23.802;2022-12-29T01:25:04;101386.09;;;1.80;88.29
55675;BME280;41562;44.330;23.802;2022-12-29T01:27:52;101379.69;;;1.53;88.63
55675;BME280;41562;44.330;23.802;2022-12-29T01:30:44;101366.19;;;1.77;96.68
55675;BME280;41562;44.330;23.802;2022-12-29T01:33:30;101363.13;;;1.59;90.24
55675;BME280;41562;44.330;23.802;2022-12-29T01:36:15;101355.28;;;1.44;91.44
55675;BME280;41562;44.330;23.802;2022-12-29T01:39:09;101349.44;;;1.49;91.90
55675;BME280;41562;44.330;23.802;2022-12-29T01:42:13;101346.72;;;1.57;93.57
55675;BME280;41562;44.330;23.802;2022-12-29T01:45:09;101343.75;;;1.31;91.38
55675;BME280;41562;44.330;23.802;2022-12-29T01:48:01;101335.75;;;1.39;90.82
55675;BME280;41562;44.330;23.802;2022-12-29T01:50:52;101335.19;;;1.58;97.55
55675;BME280;41562;44.330;23.802;2022-12-29T01:53:41;101332.09;;;1.40;91.98
55675;BME280;41562;44.330;23.802;2022-12-29T01:56:30;101329.94;;;1.29;91.46
55675;BME280;41562;44.330;23.802;2022-12-29T01:59:17;101320.47;;;1.49;93.13
55675;BME280;41562;44.330;23.802;2022-12-29T02:02:04;101321.84;;;1.45;92.02
55675;BME280;41562;44.330;23.802;2022-12-29T02:04:51;101319.47;;;1.35;91.52
55675;BME280;41562;44.330;23.802;2022-12-29T02:07:48;101320.72;;;1.39;90.58
55675;BME280;41562;44.330;23.802;2022-12-29T02:10:35;101320.47;;;1.49;90.67
55675;BME280;41562;44.330;23.802;2022-12-29T02:13:24;101327.38;;;1.50;90.01
55675;BME280;41562;44.330;23.802;2022-12-29T02:19:03;101328.38;;;1.34;91.16
55675;BME280;41562;44.330;23.802;2022-12-29T02:22:07;101335.09;;;1.51;91.41
55675;BME280;41562;44.330;23.802;2022-12-29T02:31:04;101345.50;;;1.59;96.07
55675;BME280;41562;44.330;23.802;2022-12-29T02:37:06;101351.69;;;1.52;89.40
55675;BME280;41562;44.330;23.802;2022-12-29T02:40:01;101347.97;;;1.61;93.85
55675;BME280;41562;44.330;23.802;2022-12-29T02:42:51;101336.75;;;1.38;90.29
55675;BME280;41562;44.330;23.802;2022-12-29T02:45:55;101344.09;;;1.28;90.09
55675;BME280;41562;44.330;23.802;2022-12-29T02:48:45;101344.72;;;1.15;91.70
55675;BME280;41562;44.330;23.802;2022-12-29T02:51:35;101349.00;;;1.31;95.39
55675;BME280;41562;44.330;23.802;2022-12-29T02:54:21;101347.84;;;1.18;92.61
55675;BME280;41562;44.330;23.802;2022-12-29T02:57:11;101342.31;;;1.13;92.34
55675;BME280;41562;44.330;23.802;2022-12-29T03:00:12;101340.53;;;1.20;96.06
55675;BME280;41562;44.330;23.802;2022-12-29T03:03:12;101334.63;;;0.89;94.22
55675;BME280;41562;44.330;23.802;2022-12-29T03:06:12;101346.00;;;0.90;94.13
55675;BME280;41562;44.330;23.802;2022-12-29T03:09:16;101336.09;;;0.77;94.82
55675;BME280;41562;44.330;23.802;2022-12-29T03:14:59;101332.22;;;0.88;94.73
55675;BME280;41562;44.330;23.802;2022-12-29T03:18:10;101321.03;;;0.86;94.68
55675;BME280;41562;44.330;23.802;2022-12-29T03:20:56;101311.50;;;1.14;100.00
55675;BME280;41562;44.330;23.802;2022-12-29T03:23:46;101311.94;;;0.59;96.12
55675;BME280;41562;44.330;23.802;2022-12-29T03:26:33;101315.31;;;0.67;95.77
55675;BME280;41562;44.330;23.802;2022-12-29T03:29:19;101319.81;;;0.59;98.13
55675;BME280;41562;44.330;23.802;2022-12-29T03:32:05;101314.22;;;0.62;99.08
55675;BME280;41562;44.330;23.802;2022-12-29T03:34:58;101313.22;;;0.63;95.58
55675;BME280;41562;44.330;23.802;2022-12-29T03:38:00;101312.09;;;0.57;95.26
55675;BME280;41562;44.330;23.802;2022-12-29T03:40:49;101316.41;;;0.35;97.49
55675;BME280;41562;44.330;23.802;2022-12-29T03:43:43;101326.22;;;0.42;95.50
55675;BME280;41562;44.330;23.802;2022-12-29T03:46:28;101320.31;;;0.39;95.22
55675;BME280;41562;44.330;23.802;2022-12-29T03:49:16;101316.03;;;0.38;94.41
55675;BME280;41562;44.330;23.802;2022-12-29T03:52:02;101316.34;;;0.44;93.90
55675;BME280;41562;44.330;23.802;2022-12-29T03:54:49;101315.16;;;0.46;94.21
55675;BME280;41562;44.330;23.802;2022-12-29T03:57:35;101313.50;;;0.30;94.20
55675;BME280;41562;44.330;23.802;2022-12-29T04:00:21;101315.06;;;0.39;93.73
55675;BME280;41562;44.330;23.802;2022-12-29T04:03:09;101319.16;;;0.42;93.07
55675;BME280;41562;44.330;23.802;2022-12-29T04:06:01;101326.06;;;0.20;93.40
55675;BME280;41562;44.330;23.802;2022-12-29T04:08:51;101322.69;;;0.12;93.25
55675;BME280;41562;44.330;23.802;2022-12-29T04:11:40;101325.53;;;0.48;100.00
55675;BME280;41562;44.330;23.802;2022-12-29T04:14:27;101329.41;;;0.37;93.49
55675;BME280;41562;44.330;23.802;2022-12-29T04:17:12;101327.72;;;0.21;92.67
55675;BME280;41562;44.330;23.802;2022-12-29T04:20:05;101321.47;;;0.22;94.62
55675;BME280;41562;44.330;23.802;2022-12-29T04:23:00;101323.03;;;0.31;93.51
55675;BME280;41562;44.330;23.802;2022-12-29T04:25:48;101322.38;;;0.07;92.28
55675;BME280;41562;44.330;23.802;2022-12-29T04:28:43;101321.19;;;0.17;92.47
55675;BME280;41562;44.330;23.802;2022-12-29T04:31:32;101323.78;;;-0.06;92.61
55675;BME280;41562;44.330;23.802;2022-12-29T04:34:20;101322.19;;;-0.07;93.37
55675;BME280;41562;44.330;23.802;2022-12-29T04:37:09;101318.31;;;0.04;92.85
55675;BME280;41562;44.330;23.802;2022-12-29T04:39:56;101322.88;;;0.10;95.14
55675;BME280;41562;44.330;23.802;2022-12-29T04:42:43;101338.22;;;0.21;93.87
55675;BME280;41562;44.330;23.802;2022-12-29T04:45:38;101344.19;;;0.15;92.01
55675;BME280;41562;44.330;23.802;2022-12-29T04:48:23;101350.19;;;0.01;92.97
55675;BME280;41562;44.330;23.802;2022-12-29T04:51:12;101357.28;;;0.23;97.49
55675;BME280;41562;44.330;23.802;2022-12-29T04:54:01;101355.56;;;0.08;94.69
55675;BME280;41562;44.330;23.802;2022-12-29T04:56:46;101348.50;;;0.08;93.99
55675;BME280;41562;44.330;23.802;2022-12-29T04:59:35;101348.59;;;0.00;93.92
55675;BME280;41562;44.330;23.802;2022-12-29T05:02:23;101353.34;;;-0.04;96.56
55675;BME280;41562;44.330;23.802;2022-12-29T05:05:16;101352.34;;;-0.25;93.75
55675;BME280;41562;44.330;23.802;2022-12-29T05:08:00;101351.41;;;-0.32;94.04
55675;BME280;41562;44.330;23.802;2022-12-29T05:10:46;101354.59;;;-0.14;96.65
55675;BME280;41562;44.330;23.802;2022-12-29T05:13:34;101354.19;;;-0.03;94.99
55675;BME280;41562;44.330;23.802;2022-12-29T05:16:21;101357.50;;;-0.09;93.62
55675;BME280;41562;44.330;23.802;2022-12-29T05:19:10;101362.78;;;-0.17;93.09
55675;BME280;41562;44.330;23.802;2022-12-29T05:21:56;101370.56;;;-0.24;97.87
55675;BME280;41562;44.330;23.802;2022-12-29T05:24:42;101374.00;;;-0.23;94.29
55675;BME280;41562;44.330;23.802;2022-12-29T05:27:33;101379.63;;;-0.26;93.59
55675;BME280;41562;44.330;23.802;2022-12-29T05:30:22;101375.88;;;-0.32;94.41
55675;BME280;41562;44.330;23.802;2022-12-29T05:33:08;101378.66;;;-0.33;94.74
55675;BME280;41562;44.330;23.802;2022-12-29T05:35:56;101379.34;;;-0.39;93.27
55675;BME280;41562;44.330;23.802;2022-12-29T05:38:44;101376.59;;;-0.46;93.72
55675;BME280;41562;44.330;23.802;2022-12-29T05:41:33;101374.50;;;-0.59;95.63
55675;BME280;41562;44.330;23.802;2022-12-29T05:44:19;101377.41;;;-0.46;95.31
55675;BME280;41562;44.330;23.802;2022-12-29T05:47:04;101376.22;;;5.61;88.74
55675;BME280;41562;44.330;23.802;2022-12-29T05:49:54;101374.50;;;5.86;73.12
55675;BME280;41562;44.330;23.802;2022-12-29T05:52:39;101368.09;;;5.56;69.90
55675;BME280;41562;44.330;23.802;2022-12-29T05:55:24;101372.38;;;3.73;76.31
55675;BME280;41562;44.330;23.802;2022-12-29T05:58:15;101368.44;;;3.62;73.46
55675;BME280;41562;44.330;23.802;2022-12-29T06:01:07;101371.97;;;2.72;76.77
55675;BME280;41562;44.330;23.802;2022-12-29T06:03:56;101371.44;;;2.56;80.33
55675;BME280;41562;44.330;23.802;2022-12-29T06:06:45;101368.25;;;3.16;82.67
55675;BME280;41562;44.330;23.802;2022-12-29T06:09:32;101361.50;;;2.86;78.76
55675;BME280;41562;44.330;23.802;2022-12-29T06:12:17;101372.31;;;3.18;73.32
55675;BME280;41562;44.330;23.802;2022-12-29T06:15:03;101376.53;;;1.28;80.98
55675;BME280;41562;44.330;23.802;2022-12-29T06:17:52;101377.28;;;0.70;83.99
55675;BME280;41562;44.330;23.802;2022-12-29T06:20:40;101379.66;;;0.19;85.56
55675;BME280;41562;44.330;23.802;2022-12-29T06:23:28;101381.19;;;-0.17;88.51
55675;BME280;41562;44.330;23.802;2022-12-29T06:26:14;101377.63;;;-0.24;89.54
55675;BME280;41562;44.330;23.802;2022-12-29T06:29:02;101377.84;;;-0.03;93.46
55675;BME280;41562;44.330;23.802;2022-12-29T06:31:48;101372.94;;;0.39;98.31
55675;BME280;41562;44.330;23.802;2022-12-29T06:34:33;101371.50;;;0.37;97.77
55675;BME280;41562;44.330;23.802;2022-12-29T06:37:22;101368.25;;;0.27;99.65
55675;BME280;41562;44.330;23.802;2022-12-29T06:40:07;101369.63;;;0.00;95.12
55675;BME280;41562;44.330;23.802;2022-12-29T06:42:55;101380.31;;;-0.32;92.71
55675;BME280;41562;44.330;23.802;2022-12-29T06:45:41;101376.78;;;-0.25;94.12
55675;BME280;41562;44.330;23.802;2022-12-29T06:48:27;101379.00;;;-0.06;93.82
55675;BME280;41562;44.330;23.802;2022-12-29T06:51:12;101376.56;;;-0.07;93.21
55675;BME280;41562;44.330;23.802;2022-12-29T06:53:56;101383.13;;;-0.11;93.05
55675;BME280;41562;44.330;23.802;2022-12-29T06:56:41;101380.72;;;0.10;92.93
55675;BME280;41562;44.330;23.802;2022-12-29T06:59:26;101392.28;;;0.24;91.40
55675;BME280;41562;44.330;23.802;2022-12-29T07:02:12;101385.66;;;0.51;95.70
55675;BME280;41562;44.330;23.802;2022-12-29T07:04:58;101379.66;;;0.42;98.21
55675;BME280;41562;44.330;23.802;2022-12-29T07:07:43;101384.56;;;0.68;97.11
55675;BME280;41562;44.330;23.802;2022-12-29T07:10:28;101381.28;;;0.66;91.36
55675;BME280;41562;44.330;23.802;2022-12-29T07:13:14;101388.50;;;0.64;92.27
55675;BME280;41562;44.330;23.802;2022-12-29T07:15:59;101382.78;;;1.27;88.13
55675;BME280;41562;44.330;23.802;2022-12-29T07:18:44;101390.50;;;2.30;90.20
55675;BME280;41562;44.330;23.802;2022-12-29T07:21:29;101390.22;;;3.23;80.75
55675;BME280;41562;44.330;23.802;2022-12-29T07:24:15;101392.22;;;3.55;76.89
55675;BME280;41562;44.330;23.802;2022-12-29T07:27:00;101395.03;;;3.13;78.51
55675;BME280;41562;44.330;23.802;2022-12-29T07:29:45;101400.31;;;2.15;81.69
55675;BME280;41562;44.330;23.802;2022-12-29T07:32:33;101409.28;;;1.84;82.95
55675;BME280;41562;44.330;23.802;2022-12-29T07:35:18;101400.94;;;1.66;90.50
55675;BME280;41562;44.330;23.802;2022-12-29T07:38:03;101401.00;;;1.87;86.98
55675;BME280;41562;44.330;23.802;2022-12-29T07:40:48;101394.56;;;2.11;89.31
55675;BME280;41562;44.330;23.802;2022-12-29T07:43:34;101402.69;;;2.31;91.94
55675;BME280;41562;44.330;23.802;2022-12-29T07:46:18;101404.28;;;2.96;88.71
55675;BME280;41562;44.330;23.802;2022-12-29T07:49:13;101404.19;;;3.17;80.58
55675;BME280;41562;44.330;23.802;2022-12-29T07:51:46;101399.81;;;3.31;79.04
55675;BME280;41562;44.330;23.802;2022-12-29T07:54:19;101398.50;;;4.02;88.33
55675;BME280;41562;44.330;23.802;2022-12-29T07:56:52;101391.66;;;4.27;91.56
55675;BME280;41562;44.330;23.802;2022-12-29T07:59:25;101393.47;;;4.27;79.75
55675;BME280;41562;44.330;23.802;2022-12-29T08:01:59;101395.97;;;4.41;76.70
55675;BME280;41562;44.330;23.802;2022-12-29T08:04:32;101388.22;;;4.53;75.09
55675;BME280;41562;44.330;23.802;2022-12-29T08:07:05;101386.19;;;4.68;76.50
55675;BME280;41562;44.330;23.802;2022-12-29T08:09:40;101389.66;;;4.69;74.00
55675;BME280;41562;44.330;23.802;2022-12-29T08:12:14;101392.84;;;4.18;74.70
55675;BME280;41562;44.330;23.802;2022-12-29T08:14:47;101395.72;;;4.43;77.00
55675;BME280;41562;44.330;23.802;2022-12-29T08:17:20;101391.50;;;4.55;78.28
55675;BME280;41562;44.330;23.802;2022-12-29T08:19:56;101397.19;;;4.72;74.39
55675;BME280;41562;44.330;23.802;2022-12-29T08:22:29;101396.34;;;5.17;72.23
55675;BME280;41562;44.330;23.802;2022-12-29T08:25:03;101399.97;;;5.43;71.87
55675;BME280;41562;44.330;23.802;2022-12-29T08:27:36;101401.13;;;6.11;70.46
55675;BME280;41562;44.330;23.802;2022-12-29T08:30:09;101394.66;;;6.38;69.25
55675;BME280;41562;44.330;23.802;2022-12-29T08:32:43;101399.75;;;7.14;65.56
55675;BME280;41562;44.330;23.802;2022-12-29T08:35:17;101395.53;;;7.61;64.83
55675;BME280;41562;44.330;23.802;2022-12-29T08:37:51;101400.81;;;8.46;61.29
55675;BME280;41562;44.330;23.802;2022-12-29T08:40:24;101401.47;;;8.41;59.64
55675;BME280;41562;44.330;23.802;2022-12-29T08:42:57;101388.63;;;8.20;60.55
55675;BME280;41562;44.330;23.802;2022-12-29T08:45:34;101387.84;;;7.53;64.29
55675;BME280;41562;44.330;23.802;2022-12-29T08:48:07;101378.78;;;7.91;62.26
55675;BME280;41562;44.330;23.802;2022-12-29T08:50:40;101372.38;;;7.80;61.39
55675;BME280;41562;44.330;23.802;2022-12-29T08:53:15;101374.78;;;7.70;63.40
55675;BME280;41562;44.330;23.802;2022-12-29T08:55:54;101371.16;;;7.64;69.39
55675;BME280;41562;44.330;23.802;2022-12-29T08:58:36;101366.31;;;8.03;62.48
55675;BME280;41562;44.330;23.802;2022-12-29T09:01:09;101361.91;;;7.97;62.75
55675;BME280;41562;44.330;23.802;2022-12-29T09:03:44;101359.81;;;8.82;59.19
55675;BME280;41562;44.330;23.802;2022-12-29T09:06:38;101359.50;;;8.37;63.02
55675;BME280;41562;44.330;23.802;2022-12-29T09:09:16;101357.19;;;7.51;63.29
55675;BME280;41562;44.330;23.802;2022-12-29T09:11:52;101356.94;;;7.34;68.38
55675;BME280;41562;44.330;23.802;2022-12-29T09:14:28;101360.50;;;6.67;66.54
55675;BME280;41562;44.330;23.802;2022-12-29T09:17:01;101359.63;;;6.17;68.06
55675;BME280;41562;44.330;23.802;2022-12-29T09:19:39;101352.31;;;6.12;69.32
55675;BME280;41562;44.330;23.802;2022-12-29T09:22:12;101346.03;;;6.07;68.30
55675;BME280;41562;44.330;23.802;2022-12-29T09:24:45;101348.69;;;6.07;69.50
55675;BME280;41562;44.330;23.802;2022-12-29T09:27:18;101344.09;;;6.45;78.26
55675;BME280;41562;44.330;23.802;2022-12-29T09:29:54;101334.59;;;9.93;76.93
55675;BME280;41562;44.330;23.802;2022-12-29T09:32:27;101335.44;;;11.97;62.78
55675;BME280;41562;44.330;23.802;2022-12-29T09:35:09;101330.09;;;12.61;61.61
55675;BME280;41562;44.330;23.802;2022-12-29T09:37:46;101330.03;;;9.48;57.93
55675;BME280;41562;44.330;23.802;2022-12-29T09:40:24;101329.22;;;8.20;62.54
55675;BME280;41562;44.330;23.802;2022-12-29T09:43:09;101329.47;;;7.88;63.00
55675;BME280;41562;44.330;23.802;2022-12-29T09:45:48;101327.38;;;11.05;70.14
55675;BME280;41562;44.330;23.802;2022-12-29T09:48:29;101323.16;;;13.07;59.51
55675;BME280;41562;44.330;23.802;2022-12-29T09:51:16;101325.28;;;13.05;58.47
55675;BME280;41562;44.330;23.802;2022-12-29T09:53:54;101315.84;;;12.56;53.46
55675;BME280;41562;44.330;23.802;2022-12-29T09:56:33;101315.84;;;12.56;54.02
55675;BME280;41562;44.330;23.802;2022-12-29T10:01:54;101305.78;;;10.73;53.52
55675;BME280;41562;44.330;23.802;2022-12-29T10:04:33;101306.47;;;8.82;62.93
55675;BME280;41562;44.330;23.802;2022-12-29T10:07:23;101300.91;;;8.83;63.98
55675;BME280;41562;44.330;23.802;2022-12-29T10:10:06;101295.47;;;7.42;62.74
55675;BME280;41562;44.330;23.802;2022-12-29T10:21:27;101278.06;;;6.92;65.96
55675;BME280;41562;44.330;23.802;2022-12-29T10:24:07;101277.09;;;7.04;64.82
55675;BME280;41562;44.330;23.802;2022-12-29T10:26:43;101274.38;;;7.11;69.74
55675;BME280;41562;44.330;23.802;2022-12-29T10:29:20;101273.44;;;7.35;64.70
55675;BME280;41562;44.330;23.802;2022-12-29T10:34:32;101264.56;;;10.19;69.73
55675;BME280;41562;44.330;23.802;2022-12-29T10:39:49;101269.47;;;8.97;58.30
55675;BME280;41562;44.330;23.802;2022-12-29T10:42:34;101264.00;;;11.59;66.34
55675;BME280;41562;44.330;23.802;2022-12-29T10:45:14;101267.97;;;12.05;59.60
55675;BME280;41562;44.330;23.802;2022-12-29T10:47:57;101258.44;;;10.07;55.80
55675;BME280;41562;44.330;23.802;2022-12-29T10:50:34;101254.94;;;9.05;57.38
55675;BME280;41562;44.330;23.802;2022-12-29T10:53:08;101248.50;;;8.31;58.90
55675;BME280;41562;44.330;23.802;2022-12-29T10:55:56;101255.03;;;7.93;62.25
55675;BME280;41562;44.330;23.802;2022-12-29T10:58:33;101240.88;;;8.58;61.02
55675;BME280;41562;44.330;23.802;2022-12-29T11:01:07;101245.34;;;8.11;60.63
55675;BME280;41562;44.330;23.802;2022-12-29T11:06:26;101242.03;;;8.38;59.41
55675;BME280;41562;44.330;23.802;2022-12-29T11:11:33;101234.53;;;7.94;61.47
55675;BME280;41562;44.330;23.802;2022-12-29T11:14:14;101232.38;;;12.15;71.40
55675;BME280;41562;44.330;23.802;2022-12-29T11:17:02;101222.81;;;12.71;56.03
55675;BME280;41562;44.330;23.802;2022-12-29T11:19:39;101226.00;;;10.32;53.21
55675;BME280;41562;44.330;23.802;2022-12-29T11:25:05;101215.69;;;11.49;60.10
55675;BME280;41562;44.330;23.802;2022-12-29T11:27:43;101209.72;;;12.80;59.89
55675;BME280;41562;44.330;23.802;2022-12-29T11:30:28;101205.53;;;12.52;52.33
55675;BME280;41562;44.330;23.802;2022-12-29T11:33:04;101206.44;;;10.86;52.08
55675;BME280;41562;44.330;23.802;2022-12-29T11:35:41;101200.78;;;9.78;54.75
55675;BME280;41562;44.330;23.802;2022-12-29T11:38:23;101195.16;;;9.46;63.12
55675;BME280;41562;44.330;23.802;2022-12-29T11:40:57;101188.78;;;10.47;73.64
55675;BME280;41562;44.330;23.802;2022-12-29T11:43:39;101199.38;;;10.59;61.28
55675;BME280;41562;44.330;23.802;2022-12-29T11:46:18;101200.44;;;11.23;87.41
55675;BME280;41562;44.330;23.802;2022-12-29T11:48:52;101195.94;;;11.07;58.17
55675;BME280;41562;44.330;23.802;2022-12-29T11:51:27;101190.72;;;10.95;59.01
55675;BME280;41562;44.330;23.802;2022-12-29T11:54:01;101176.81;;;12.47;93.08
55675;BME280;41562;44.330;23.802;2022-12-29T11:56:39;101192.09;;;11.46;55.40
55675;BME280;41562;44.330;23.802;2022-12-29T12:01:56;101178.63;;;9.77;60.58
55675;BME280;41562;44.330;23.802;2022-12-29T12:04:31;101177.72;;;10.05;59.57
55675;BME280;41562;44.330;23.802;2022-12-29T12:14:57;101178.13;;;12.03;59.04
55675;BME280;41562;44.330;23.802;2022-12-29T12:17:53;101168.53;;;12.59;58.49
55675;BME280;41562;44.330;23.802;2022-12-29T12:25:43;101166.22;;;9.71;59.54
55675;BME280;41562;44.330;23.802;2022-12-29T12:28:23;101167.34;;;9.42;61.06
55675;BME280;41562;44.330;23.802;2022-12-29T12:31:02;101161.03;;;9.48;68.46
55675;BME280;41562;44.330;23.802;2022-12-29T12:33:41;101161.81;;;9.03;63.48
55675;BME280;41562;44.330;23.802;2022-12-29T12:39:11;101157.38;;;8.80;64.04
55675;BME280;41562;44.330;23.802;2022-12-29T12:44:36;101159.84;;;9.72;63.89
55675;BME280;41562;44.330;23.802;2022-12-29T12:55:49;101161.03;;;7.93;65.81
55675;BME280;41562;44.330;23.802;2022-12-29T13:01:24;101164.38;;;7.77;65.78
55675;BME280;41562;44.330;23.802;2022-12-29T13:04:10;101165.09;;;7.84;66.66
55675;BME280;41562;44.330;23.802;2022-12-29T13:12:26;101160.06;;;11.03;71.41
55675;BME280;41562;44.330;23.802;2022-12-29T13:15:10;101154.91;;;9.64;61.80
55675;BME280;41562;44.330;23.802;2022-12-29T13:20:31;101157.19;;;8.59;65.96
55675;BME280;41562;44.330;23.802;2022-12-29T13:31:19;101136.59;;;7.96;68.04
55675;BME280;41562;44.330;23.802;2022-12-29T13:36:36;101133.72;;;8.09;74.25
55675;BME280;41562;44.330;23.802;2022-12-29T13:39:11;101131.59;;;8.11;69.51
55675;BME280;41562;44.330;23.802;2022-12-29T13:41:53;101134.97;;;8.18;70.82
55675;BME280;41562;44.330;23.802;2022-12-29T13:45:13;101128.38;;;8.32;73.27
55675;BME280;41562;44.330;23.802;2022-12-29T13:50:18;101133.00;;;8.88;78.26
55675;BME280;41562;44.330;23.802;2022-12-29T13:55:58;101128.81;;;8.18;68.88
55675;BME280;41562;44.330;23.802;2022-12-29T14:03:59;101127.78;;;7.72;69.99
55675;BME280;41562;44.330;23.802;2022-12-29T14:06:35;101128.22;;;7.57;70.26
55675;BME280;41562;44.330;23.802;2022-12-29T14:12:32;101128.91;;;7.53;70.39
55675;BME280;41562;44.330;23.802;2022-12-29T14:17:42;101129.97;;;7.63;71.44
55675;BME280;41562;44.330;23.802;2022-12-29T14:20:30;101129.19;;;7.75;71.59
55675;BME280;41562;44.330;23.802;2022-12-29T14:28:37;101123.25;;;7.49;73.28
55675;BME280;41562;44.330;23.802;2022-12-29T14:36:43;101126.50;;;7.51;75.35
55675;BME280;41562;44.330;23.802;2022-12-29T14:39:35;101130.00;;;7.34;73.76
55675;BME280;41562;44.330;23.802;2022-12-29T14:50:05;101126.88;;;7.25;74.68
55675;BME280;41562;44.330;23.802;2022-12-29T14:52:58;101131.44;;;7.06;75.42
55675;BME280;41562;44.330;23.802;2022-12-29T14:55:37;101127.56;;;6.91;76.40
55675;BME280;41562;44.330;23.802;2022-12-29T14:58:15;101115.19;;;6.96;77.04
55675;BME280;41562;44.330;23.802;2022-12-29T15:00:50;101101.16;;;7.07;82.25
55675;BME280;41562;44.330;23.802;2022-12-29T15:03:25;101091.25;;;10.11;97.20
55675;BME280;41562;44.330;23.802;2022-12-29T15:06:06;101101.56;;;11.75;70.13
55675;BME280;41562;44.330;23.802;2022-12-29T15:08:58;101099.72;;;9.53;69.29
55675;BME280;41562;44.330;23.802;2022-12-29T15:17:28;101117.22;;;11.03;62.59
55675;BME280;41562;44.330;23.802;2022-12-29T15:20:24;101109.13;;;10.71;63.47
55675;BME280;41562;44.330;23.802;2022-12-29T15:23:02;101110.78;;;9.95;66.45
55675;BME280;41562;44.330;23.802;2022-12-29T15:25:35;101116.19;;;10.17;72.05
55675;BME280;41562;44.330;23.802;2022-12-29T15:28:10;101116.13;;;9.95;76.17
55675;BME280;41562;44.330;23.802;2022-12-29T15:30:56;101120.56;;;9.89;69.99
55675;BME280;41562;44.330;23.802;2022-12-29T15:33:36;101118.06;;;10.81;70.11
55675;BME280;41562;44.330;23.802;2022-12-29T15:36:23;101112.88;;;10.48;64.13
55675;BME280;41562;44.330;23.802;2022-12-29T15:38:57;101110.41;;;8.28;72.14
55675;BME280;41562;44.330;23.802;2022-12-29T15:44:18;101120.06;;;12.81;68.69
55675;BME280;41562;44.330;23.802;2022-12-29T15:46:53;101114.72;;;14.38;61.22
55675;BME280;41562;44.330;23.802;2022-12-29T15:49:26;101120.66;;;14.35;58.92
55675;BME280;41562;44.330;23.802;2022-12-29T15:52:07;101120.69;;;10.33;63.30
55675;BME280;41562;44.330;23.802;2022-12-29T15:54:46;101127.75;;;8.54;70.80
55675;BME280;41562;44.330;23.802;2022-12-29T15:57:22;101135.75;;;7.60;75.94
55675;BME280;41562;44.330;23.802;2022-12-29T15:59:56;101134.72;;;6.90;78.33
55675;BME280;41562;44.330;23.802;2022-12-29T16:02:31;101124.34;;;6.52;81.14
55675;BME280;41562;44.330;23.802;2022-12-29T16:05:08;101126.59;;;6.37;81.89
55675;BME280;41562;44.330;23.802;2022-12-29T16:07:57;101121.59;;;6.04;83.23
55675;BME280;41562;44.330;23.802;2022-12-29T16:10:40;101124.13;;;5.99;84.01
55675;BME280;41562;44.330;23.802;2022-12-29T16:13:27;101135.31;;;6.01;83.84
55675;BME280;41562;44.330;23.802;2022-12-29T16:16:12;101144.69;;;6.03;83.51
55675;BME280;41562;44.330;23.802;2022-12-29T16:18:49;101131.81;;;5.76;84.64
55675;BME280;41562;44.330;23.802;2022-12-29T16:21:33;101136.00;;;5.65;85.65
55675;BME280;41562;44.330;23.802;2022-12-29T16:24:20;101134.25;;;5.77;85.25
55675;BME280;41562;44.330;23.802;2022-12-29T16:27:31;101127.03;;;5.66;86.14
55675;BME280;41562;44.330;23.802;2022-12-29T16:29:58;101140.22;;;5.73;85.28